createdAt,value
2022-10-21T00:09:46.902Z,9.90
2022-10-21T00:20:15.409Z,19.90
2022-10-21T00:30:46.344Z,15.30
2022-10-21T00:41:14.078Z,14.90
2022-10-21T00:51:41.927Z,11.50
2022-10-21T01:02:09.502Z,16.40
2022-10-21T01:12:45.560Z,15.50
2022-10-21T01:23:55.738Z,16.90
2022-10-21T01:34:29.972Z,15.30
2022-10-21T01:45:03.905Z,17.90
2022-10-21T01:55:33.540Z,11.60
2022-10-21T02:06:01.098Z,16.20
2022-10-21T02:16:33.033Z,17.40
2022-10-21T02:27:00.517Z,13.60
2022-10-21T02:37:34.366Z,12.30
2022-10-21T02:48:01.829Z,14.30
2022-10-21T02:58:29.206Z,14.00
2022-10-21T03:08:56.603Z,13.90
2022-10-21T03:19:23.830Z,13.60
2022-10-21T03:29:51.104Z,17.00
2022-10-21T03:40:18.674Z,17.90
2022-10-21T03:50:45.944Z,16.10
2022-10-21T04:01:15.170Z,19.20
2022-10-21T04:11:42.552Z,19.90
2022-10-21T04:22:09.971Z,16.40
2022-10-21T04:32:37.735Z,16.90
2022-10-21T04:43:05.941Z,15.70
2022-10-21T04:53:33.590Z,19.90
2022-10-21T05:04:00.815Z,19.30
2022-10-21T05:14:28.137Z,19.10
2022-10-21T05:24:55.466Z,15.60
2022-10-21T05:35:22.754Z,18.70
2022-10-21T05:45:50.162Z,29.80
2022-10-21T05:56:17.441Z,18.50
2022-10-21T06:06:44.769Z,22.70
2022-10-21T06:17:12.230Z,22.30
2022-10-21T06:27:39.863Z,23.70
2022-10-21T06:38:07.441Z,21.60
2022-10-21T06:48:35.410Z,22.90
2022-10-21T06:59:02.661Z,20.40
2022-10-21T07:09:30.808Z,21.40
2022-10-21T07:19:58.165Z,19.30
2022-10-21T07:30:25.511Z,16.70
2022-10-21T07:40:52.889Z,24.10
2022-10-21T07:51:25.736Z,25.70
2022-10-21T08:01:56.433Z,25.80
2022-10-21T08:12:23.776Z,28.80
2022-10-21T08:22:51.098Z,23.50
2022-10-21T08:33:18.581Z,24.20
2022-10-21T08:43:46.570Z,26.40
2022-10-21T08:54:20.285Z,25.20
2022-10-21T09:04:54.367Z,23.00
2022-10-21T09:15:28.541Z,24.50
2022-10-21T09:26:01.738Z,22.50
2022-10-21T09:36:33.473Z,21.60
2022-10-21T09:47:00.785Z,19.00
2022-10-21T09:57:43.612Z,23.50
2022-10-21T10:08:34.816Z,19.60
2022-10-21T10:19:18.201Z,26.60
2022-10-21T10:29:53.652Z,23.30
2022-10-21T10:40:25.721Z,23.20
2022-10-21T10:50:53.633Z,22.40
2022-10-21T11:01:36.586Z,20.90
2022-10-21T11:12:07.698Z,21.90
2022-10-21T11:22:44.885Z,22.10
2022-10-21T11:33:25.671Z,19.20
2022-10-21T11:44:03.597Z,18.40
2022-10-21T11:54:59.689Z,16.60
2022-10-21T12:05:36.978Z,16.10
2022-10-21T12:16:10.005Z,11.50
2022-10-21T12:26:41.780Z,8.90
2022-10-21T12:37:44.353Z,6.60
2022-10-21T12:48:33.081Z,9.30
2022-10-21T12:59:04.591Z,8.40
2022-10-21T13:09:43.663Z,6.30
2022-10-21T13:20:47.796Z,8.70
2022-10-21T13:31:23.268Z,6.10
2022-10-21T13:41:59.805Z,7.50
2022-10-21T13:52:31.461Z,11.60
2022-10-21T14:03:04.950Z,9.60
2022-10-21T14:13:36.978Z,13.50
2022-10-21T14:24:05.143Z,21.30
2022-10-21T14:34:34.014Z,13.80
2022-10-21T14:45:05.938Z,11.80
2022-10-21T14:55:33.597Z,18.90
2022-10-21T15:06:13.034Z,13.90
2022-10-21T15:16:46.174Z,9.80
2022-10-21T15:27:19.696Z,14.40
2022-10-21T15:37:50.582Z,16.80
2022-10-21T15:48:18.364Z,18.70
2022-10-21T15:58:45.815Z,17.00
2022-10-21T16:09:19.701Z,24.40
2022-10-21T16:19:48.318Z,16.60
2022-10-21T16:30:21.781Z,19.10
2022-10-21T16:40:49.001Z,17.80
2022-10-21T16:51:16.473Z,22.40
2022-10-21T17:01:44.223Z,18.30
2022-10-21T17:12:13.180Z,20.40
2022-10-21T17:22:40.662Z,16.30
2022-10-21T17:33:10.687Z,14.70
2022-10-21T17:43:41.621Z,18.30
2022-10-21T17:54:10.976Z,12.40
2022-10-21T18:04:38.350Z,13.10
2022-10-21T18:15:06.867Z,16.20
2022-10-21T18:25:35.665Z,16.00
2022-10-21T18:36:11.783Z,17.10
2022-10-21T18:46:40.795Z,18.20
2022-10-21T18:57:10.173Z,17.30
2022-10-21T19:07:38.005Z,14.60
2022-10-21T19:18:05.743Z,16.20
2022-10-21T19:28:34.060Z,22.80
2022-10-21T19:49:27.162Z,21.80
2022-10-21T19:59:54.488Z,20.40
2022-10-21T20:10:23.743Z,16.50
2022-10-21T20:20:51.456Z,17.00
2022-10-21T20:31:19.781Z,13.40
2022-10-21T20:52:12.933Z,16.40
2022-10-21T21:02:40.676Z,13.30
2022-10-21T21:13:08.004Z,11.70
2022-10-21T21:23:35.831Z,13.30
2022-10-21T21:34:03.142Z,15.10
2022-10-21T21:44:30.753Z,13.20
2022-10-21T21:54:58.566Z,14.60
2022-10-21T22:05:27.153Z,21.50
2022-10-21T22:15:54.429Z,15.20
2022-10-21T22:26:26.581Z,13.90
2022-10-21T22:36:54.078Z,15.70
2022-10-21T22:47:23.446Z,12.80
2022-10-21T22:57:51.937Z,10.70
2022-10-21T23:18:45.118Z,12.60
2022-10-21T23:29:12.750Z,12.80
2022-10-21T23:39:40.279Z,16.60
2022-10-21T23:50:10.166Z,12.80
